createdAt,value
2019-03-24T00:00:49.151Z,5.70
2019-03-24T00:06:18.567Z,5.60
2019-03-24T00:11:47.929Z,5.50
2019-03-24T00:17:17.399Z,5.40
2019-03-24T00:22:46.718Z,5.40
2019-03-24T00:28:16.198Z,5.30
2019-03-24T00:33:45.546Z,5.40
2019-03-24T00:39:14.948Z,5.40
2019-03-24T00:44:44.305Z,5.20
2019-03-24T00:50:13.927Z,5.20
2019-03-24T00:55:43.383Z,5.10
2019-03-24T01:01:12.696Z,5.00
2019-03-24T01:06:42.138Z,4.90
2019-03-24T01:12:12.385Z,4.90
2019-03-24T01:17:41.804Z,4.80
2019-03-24T01:23:11.185Z,4.70
2019-03-24T01:28:40.510Z,4.70
2019-03-24T01:34:10.096Z,4.60
2019-03-24T01:39:39.408Z,4.50
2019-03-24T01:45:11.691Z,4.50
2019-03-24T01:50:41.149Z,4.40
2019-03-24T01:56:10.923Z,4.40
2019-03-24T02:01:40.225Z,4.30
2019-03-24T02:07:09.628Z,4.20
2019-03-24T02:12:39.565Z,4.20
2019-03-24T02:18:08.960Z,4.10
2019-03-24T02:23:38.327Z,4.10
2019-03-24T02:29:07.706Z,4.00
2019-03-24T02:34:37.051Z,3.90
2019-03-24T02:40:08.678Z,3.90
2019-03-24T02:45:38.009Z,3.90
2019-03-24T02:51:07.355Z,3.80
2019-03-24T02:56:36.750Z,3.70
2019-03-24T03:02:06.423Z,3.70
2019-03-24T03:07:35.895Z,3.70
2019-03-24T03:13:05.381Z,3.50
2019-03-24T03:18:34.781Z,3.50
2019-03-24T03:24:04.331Z,3.50
2019-03-24T03:29:33.701Z,3.40
2019-03-24T03:35:04.488Z,3.40
2019-03-24T03:40:34.253Z,3.30
2019-03-24T03:46:03.887Z,3.30
2019-03-24T03:51:33.345Z,3.20
2019-03-24T03:57:02.901Z,3.20
2019-03-24T04:02:33.237Z,3.10
2019-03-24T04:08:03.175Z,3.10
2019-03-24T04:13:32.646Z,3.10
2019-03-24T04:19:02.034Z,3.10
2019-03-24T04:24:31.433Z,3.10
2019-03-24T04:30:01.060Z,3.10
2019-03-24T04:35:30.463Z,3.10
2019-03-24T04:41:00.134Z,3.10
2019-03-24T04:46:29.545Z,3.10
2019-03-24T04:52:00.241Z,3.00
2019-03-24T04:57:29.643Z,3.00
2019-03-24T05:02:59.186Z,3.00
2019-03-24T05:08:29.507Z,3.00
2019-03-24T05:13:59.100Z,3.00
2019-03-24T05:19:28.851Z,3.00
2019-03-24T05:24:58.255Z,3.00
2019-03-24T05:30:27.919Z,3.00
2019-03-24T05:35:57.450Z,3.00
2019-03-24T05:41:26.995Z,3.00
2019-03-24T05:46:56.517Z,3.10
2019-03-24T05:52:27.686Z,3.20
2019-03-24T05:57:57.718Z,3.40
2019-03-24T06:03:27.295Z,3.50
2019-03-24T06:08:56.916Z,3.80
2019-03-24T06:14:26.450Z,4.10
2019-03-24T06:19:55.987Z,4.40
2019-03-24T06:25:25.643Z,4.70
2019-03-24T06:30:55.077Z,5.00
2019-03-24T06:36:24.658Z,5.30
2019-03-24T06:41:54.040Z,5.60
2019-03-24T06:47:23.581Z,5.90
2019-03-24T06:52:54.351Z,6.20
2019-03-24T06:58:24.572Z,6.50
2019-03-24T07:03:53.995Z,6.80
2019-03-24T07:09:23.424Z,7.10
2019-03-24T07:14:52.735Z,7.50
2019-03-24T07:20:22.345Z,7.70
2019-03-24T07:25:52.049Z,7.90
2019-03-24T07:31:22.161Z,8.10
2019-03-24T07:36:53.655Z,8.40
2019-03-24T07:42:23.036Z,8.70
2019-03-24T07:47:53.176Z,9.00
2019-03-24T07:53:22.669Z,9.40
2019-03-24T07:58:54.024Z,9.70
2019-03-24T08:04:28.038Z,10.00
2019-03-24T08:09:57.606Z,10.30
2019-03-24T08:15:28.350Z,10.60
2019-03-24T08:21:00.955Z,10.90
2019-03-24T08:26:34.876Z,11.20
2019-03-24T08:32:04.281Z,11.50
2019-03-24T08:37:33.852Z,11.70
2019-03-24T08:43:03.677Z,11.90
2019-03-24T08:48:40.781Z,12.10
2019-03-24T08:54:07.233Z,12.40
2019-03-24T08:59:39.940Z,12.60
2019-03-24T09:05:10.788Z,12.90
2019-03-24T09:10:41.070Z,13.00
2019-03-24T09:16:11.063Z,13.30
2019-03-24T09:21:41.521Z,13.50
2019-03-24T09:27:11.702Z,13.60
2019-03-24T09:32:41.113Z,13.80
2019-03-24T09:38:10.543Z,13.90
2019-03-24T09:43:39.986Z,14.10
2019-03-24T09:49:09.766Z,14.40
2019-03-24T09:54:39.180Z,14.60
2019-03-24T10:00:08.857Z,14.80
2019-03-24T10:05:38.252Z,15.00
2019-03-24T10:11:14.584Z,15.30
2019-03-24T10:16:44.064Z,15.30
2019-03-24T10:22:13.512Z,15.50
2019-03-24T10:27:42.973Z,15.60
2019-03-24T10:33:13.536Z,15.80
2019-03-24T10:38:45.238Z,15.90
2019-03-24T10:44:14.979Z,16.00
2019-03-24T10:49:44.605Z,16.20
2019-03-24T10:55:14.900Z,16.30
2019-03-24T11:00:46.668Z,16.50
2019-03-24T11:06:15.988Z,16.80
2019-03-24T11:11:45.487Z,17.00
2019-03-24T11:17:14.933Z,17.10
2019-03-24T11:22:45.358Z,17.30
2019-03-24T11:28:14.813Z,17.30
2019-03-24T11:33:44.197Z,17.40
2019-03-24T11:39:13.789Z,17.60
2019-03-24T11:44:43.363Z,17.80
2019-03-24T11:50:13.180Z,17.80
2019-03-24T11:55:42.754Z,18.10
2019-03-24T12:01:12.247Z,18.10
2019-03-24T12:06:42.042Z,18.10
2019-03-24T12:12:11.510Z,18.10
2019-03-24T12:17:41.158Z,18.20
2019-03-24T12:23:10.514Z,18.40
2019-03-24T12:28:39.886Z,18.60
2019-03-24T12:34:11.464Z,18.40
2019-03-24T12:39:40.891Z,18.50
2019-03-24T12:45:12.068Z,18.60
2019-03-24T12:50:41.578Z,18.70
2019-03-24T12:56:11.025Z,18.90
2019-03-24T13:01:40.694Z,19.30
2019-03-24T13:07:10.028Z,19.90
2019-03-24T13:12:39.640Z,20.40
2019-03-24T13:18:10.577Z,20.70
2019-03-24T13:23:39.892Z,20.70
2019-03-24T13:29:09.286Z,20.70
2019-03-24T13:34:38.671Z,20.60
2019-03-24T13:40:08.448Z,20.80
2019-03-24T13:45:37.901Z,21.30
2019-03-24T13:51:08.421Z,21.50
2019-03-24T13:56:38.016Z,21.80
2019-03-24T14:02:09.258Z,22.60
2019-03-24T14:07:38.646Z,22.90
2019-03-24T14:13:08.008Z,23.50
2019-03-24T14:18:40.382Z,23.80
2019-03-24T14:24:09.848Z,24.20
2019-03-24T14:29:39.363Z,24.90
2019-03-24T14:35:09.577Z,25.70
2019-03-24T14:40:39.138Z,26.40
2019-03-24T14:46:09.010Z,26.50
2019-03-24T14:51:38.639Z,26.20
2019-03-24T14:57:08.743Z,26.70
2019-03-24T15:02:38.071Z,26.80
2019-03-24T15:08:08.015Z,26.80
2019-03-24T15:13:37.329Z,26.50
2019-03-24T15:19:07.284Z,26.40
2019-03-24T15:24:36.725Z,26.20
2019-03-24T15:30:09.094Z,25.10
2019-03-24T15:35:38.684Z,24.50
2019-03-24T15:41:08.322Z,24.00
2019-03-24T15:46:37.947Z,23.80
2019-03-24T15:52:07.426Z,23.60
2019-03-24T15:57:38.066Z,23.80
2019-03-24T16:03:07.559Z,23.50
2019-03-24T16:08:38.004Z,23.20
2019-03-24T16:14:07.578Z,22.80
2019-03-24T16:19:38.636Z,22.60
2019-03-24T16:25:08.850Z,21.20
2019-03-24T16:30:39.418Z,20.10
2019-03-24T16:36:12.342Z,19.30
2019-03-24T16:41:41.953Z,18.70
2019-03-24T16:47:11.377Z,18.10
2019-03-24T16:52:42.355Z,17.60
2019-03-24T16:58:13.493Z,17.20
2019-03-24T17:03:42.968Z,16.70
2019-03-24T17:09:12.483Z,16.40
2019-03-24T17:14:41.996Z,16.10
2019-03-24T17:20:11.545Z,15.90
2019-03-24T17:25:41.013Z,15.70
2019-03-24T17:31:10.535Z,15.50
2019-03-24T17:36:42.522Z,15.30
2019-03-24T17:42:11.917Z,15.20
2019-03-24T17:47:41.564Z,15.00
2019-03-24T17:53:10.989Z,14.90
2019-03-24T17:58:40.368Z,14.80
2019-03-24T18:04:10.049Z,14.60
2019-03-24T18:09:40.436Z,14.50
2019-03-24T18:15:11.235Z,14.20
2019-03-24T18:20:40.782Z,14.00
2019-03-24T18:26:10.279Z,13.80
2019-03-24T18:31:39.961Z,13.60
2019-03-24T18:37:09.528Z,13.50
2019-03-24T18:42:39.412Z,13.30
2019-03-24T18:48:08.973Z,13.00
2019-03-24T18:53:38.495Z,12.80
2019-03-24T18:59:08.211Z,12.60
2019-03-24T19:04:37.819Z,12.50
2019-03-24T19:10:09.878Z,12.40
2019-03-24T19:15:39.493Z,12.20
2019-03-24T19:21:09.844Z,12.10
2019-03-24T19:26:39.673Z,12.10
2019-03-24T19:32:11.107Z,12.00
2019-03-24T19:37:42.106Z,11.90
2019-03-24T19:43:11.763Z,11.70
2019-03-24T19:48:41.222Z,11.60
2019-03-24T19:54:22.569Z,11.60
2019-03-24T19:59:52.841Z,11.50
2019-03-24T20:05:22.273Z,11.40
2019-03-24T20:10:51.821Z,11.30
2019-03-24T20:16:22.588Z,11.30
2019-03-24T20:21:58.428Z,11.20
2019-03-24T20:27:32.049Z,11.00
2019-03-24T20:33:02.204Z,10.90
2019-03-24T20:38:31.773Z,10.80
2019-03-24T20:44:05.535Z,10.60
2019-03-24T20:49:37.016Z,10.50
2019-03-24T20:55:08.185Z,10.40
2019-03-24T21:00:38.423Z,10.30
2019-03-24T21:06:08.203Z,10.20
2019-03-24T21:11:37.877Z,10.10
2019-03-24T21:17:07.529Z,10.00
2019-03-24T21:22:41.737Z,10.00
2019-03-24T21:28:11.243Z,9.90
2019-03-24T21:33:41.204Z,9.80
2019-03-24T21:39:16.908Z,9.70
2019-03-24T21:44:48.501Z,9.60
2019-03-24T21:50:18.009Z,9.60
2019-03-24T21:55:47.522Z,9.50
2019-03-24T22:01:16.977Z,9.40
2019-03-24T22:06:47.304Z,9.30
2019-03-24T22:12:16.731Z,9.20
2019-03-24T22:17:46.152Z,9.10
2019-03-24T22:23:15.500Z,9.00
2019-03-24T22:28:45.191Z,8.90
2019-03-24T22:34:14.651Z,8.80
2019-03-24T22:39:44.003Z,8.70
2019-03-24T22:45:13.654Z,8.70
2019-03-24T22:50:43.124Z,8.60
2019-03-24T22:56:12.586Z,8.50
2019-03-24T23:01:42.085Z,8.50
2019-03-24T23:07:11.671Z,8.50
2019-03-24T23:12:41.162Z,8.50
2019-03-24T23:18:10.617Z,8.40
2019-03-24T23:23:41.378Z,8.40
2019-03-24T23:29:10.761Z,8.40
2019-03-24T23:34:40.310Z,8.40
2019-03-24T23:40:10.120Z,8.40
2019-03-24T23:45:39.971Z,8.40
2019-03-24T23:51:10.597Z,8.40
2019-03-24T23:56:39.931Z,8.50
